sensor_id;sensor_type;location;lat;lon;timestamp;pressure;altitude;pressure_sealevel;temperature;humidity
20825;BME280;10573;50.936;6.978;2023-02-10T00:00:43;103163.75;;;4.99;66.56
20825;BME280;10573;50.936;6.978;2023-02-10T00:03:09;103161.66;;;4.81;66.04
20825;BME280;10573;50.936;6.978;2023-02-10T00:05:34;103162.59;;;5.08;66.11
20825;BME280;10573;50.936;6.978;2023-02-10T00:07:59;103163.75;;;4.99;65.80
20825;BME280;10573;50.936;6.978;2023-02-10T00:10:25;103179.88;;;5.02;66.17
20825;BME280;10573;50.936;6.978;2023-02-10T00:12:50;103165.41;;;5.03;65.45
20825;BME280;10573;50.936;6.978;2023-02-10T00:15:16;103173.16;;;4.86;65.58
20825;BME280;10573;50.936;6.978;2023-02-10T00:17:41;103170.91;;;4.72;65.87
20825;BME280;10573;50.936;6.978;2023-02-10T00:20:07;103177.69;;;4.85;66.12
20825;BME280;10573;50.936;6.978;2023-02-10T00:22:33;103182.66;;;4.99;65.96
20825;BME280;10573;50.936;6.978;2023-02-10T00:24:59;103171.78;;;5.02;66.06
20825;BME280;10573;50.936;6.978;2023-02-10T00:27:24;103168.50;;;4.91;66.06
20825;BME280;10573;50.936;6.978;2023-02-10T00:29:50;103171.78;;;5.02;65.94
20825;BME280;10573;50.936;6.978;2023-02-10T00:32:15;103170.81;;;5.03;65.69
20825;BME280;10573;50.936;6.978;2023-02-10T00:34:43;103165.03;;;5.16;65.41
20825;BME280;10573;50.936;6.978;2023-02-10T00:37:09;103173.56;;;5.02;66.05
20825;BME280;10573;50.936;6.978;2023-02-10T00:39:34;103175.94;;;5.13;66.06
20825;BME280;10573;50.936;6.978;2023-02-10T00:42:00;103182.59;;;5.02;65.67
20825;BME280;10573;50.936;6.978;2023-02-10T00:44:25;103176.28;;;5.02;66.51
20825;BME280;10573;50.936;6.978;2023-02-10T00:46:50;103188.34;;;4.90;66.42
20825;BME280;10573;50.936;6.978;2023-02-10T00:49:16;103184.81;;;4.88;65.90
20825;BME280;10573;50.936;6.978;2023-02-10T00:51:41;103190.41;;;5.12;65.09
20825;BME280;10573;50.936;6.978;2023-02-10T00:54:08;103194.03;;;5.11;65.37
20825;BME280;10573;50.936;6.978;2023-02-10T00:56:33;103186.72;;;5.14;65.63
20825;BME280;10573;50.936;6.978;2023-02-10T00:58:59;103187.41;;;4.91;65.42
20825;BME280;10573;50.936;6.978;2023-02-10T01:01:24;103186.22;;;5.01;65.54
20825;BME280;10573;50.936;6.978;2023-02-10T01:03:49;103186.94;;;5.07;65.67
20825;BME280;10573;50.936;6.978;2023-02-10T01:06:15;103179.78;;;5.06;65.23
20825;BME280;10573;50.936;6.978;2023-02-10T01:08:41;103186.25;;;5.00;65.62
20825;BME280;10573;50.936;6.978;2023-02-10T01:11:09;103185.28;;;5.02;65.97
20825;BME280;10573;50.936;6.978;2023-02-10T01:13:36;103179.66;;;5.09;65.40
20825;BME280;10573;50.936;6.978;2023-02-10T01:16:07;103188.72;;;5.08;65.47
20825;BME280;10573;50.936;6.978;2023-02-10T01:18:38;103190.88;;;4.96;65.64
20825;BME280;10573;50.936;6.978;2023-02-10T01:21:08;103199.31;;;5.14;65.56
20825;BME280;10573;50.936;6.978;2023-02-10T01:23:34;103201.28;;;5.09;65.91
20825;BME280;10573;50.936;6.978;2023-02-10T01:26:00;103203.78;;;5.15;65.95
20825;BME280;10573;50.936;6.978;2023-02-10T01:28:25;103203.25;;;5.03;65.32
20825;BME280;10573;50.936;6.978;2023-02-10T01:30:51;103196.44;;;4.90;65.67
20825;BME280;10573;50.936;6.978;2023-02-10T01:33:16;103204.81;;;4.82;66.23
20825;BME280;10573;50.936;6.978;2023-02-10T01:35:41;103206.44;;;4.88;66.08
20825;BME280;10573;50.936;6.978;2023-02-10T01:38:07;103208.16;;;5.19;65.88
20825;BME280;10573;50.936;6.978;2023-02-10T01:40:32;103199.06;;;4.93;66.09
20825;BME280;10573;50.936;6.978;2023-02-10T01:42:58;103204.31;;;4.98;66.01
20825;BME280;10573;50.936;6.978;2023-02-10T01:45:24;103208.84;;;4.97;65.05
20825;BME280;10573;50.936;6.978;2023-02-10T01:47:53;103213.75;;;5.13;65.13
20825;BME280;10573;50.936;6.978;2023-02-10T01:50:23;103216.06;;;4.97;65.97
20825;BME280;10573;50.936;6.978;2023-02-10T01:52:50;103217.25;;;4.88;66.07
20825;BME280;10573;50.936;6.978;2023-02-10T01:55:18;103218.84;;;4.94;65.60
20825;BME280;10573;50.936;6.978;2023-02-10T01:57:46;103223.66;;;4.84;65.89
20825;BME280;10573;50.936;6.978;2023-02-10T02:00:13;103223.84;;;5.08;65.23
20825;BME280;10573;50.936;6.978;2023-02-10T02:02:40;103225.69;;;5.06;65.42
20825;BME280;10573;50.936;6.978;2023-02-10T02:05:18;103218.56;;;5.03;65.53
20825;BME280;10573;50.936;6.978;2023-02-10T02:07:44;103220.06;;;5.13;65.66
20825;BME280;10573;50.936;6.978;2023-02-10T02:10:09;103225.66;;;5.07;65.59
20825;BME280;10573;50.936;6.978;2023-02-10T02:12:45;103230.47;;;4.97;65.24
20825;BME280;10573;50.936;6.978;2023-02-10T02:15:26;103218.69;;;5.00;64.95
20825;BME280;10573;50.936;6.978;2023-02-10T02:18:09;103232.91;;;4.77;65.61
20825;BME280;10573;50.936;6.978;2023-02-10T02:29:15;103219.78;;;5.23;65.85
20825;BME280;10573;50.936;6.978;2023-02-10T02:34:36;103235.38;;;5.13;65.59
20825;BME280;10573;50.936;6.978;2023-02-10T02:37:16;103233.00;;;5.32;65.29
20825;BME280;10573;50.936;6.978;2023-02-10T02:39:43;103231.56;;;5.20;65.12
20825;BME280;10573;50.936;6.978;2023-02-10T02:44:41;103238.19;;;5.10;66.00
20825;BME280;10573;50.936;6.978;2023-02-10T02:52:39;103246.47;;;5.03;66.72
20825;BME280;10573;50.936;6.978;2023-02-10T02:58:02;103245.16;;;5.17;66.44
20825;BME280;10573;50.936;6.978;2023-02-10T03:00:31;103242.56;;;5.14;65.83
20825;BME280;10573;50.936;6.978;2023-02-10T03:02:58;103243.16;;;5.24;65.36
20825;BME280;10573;50.936;6.978;2023-02-10T03:05:29;103241.44;;;5.21;66.02
20825;BME280;10573;50.936;6.978;2023-02-10T03:07:56;103251.41;;;5.19;65.54
20825;BME280;10573;50.936;6.978;2023-02-10T03:10:21;103246.28;;;5.10;65.65
20825;BME280;10573;50.936;6.978;2023-02-10T03:12:47;103260.72;;;5.09;66.00
20825;BME280;10573;50.936;6.978;2023-02-10T03:15:13;103263.44;;;5.09;66.04
20825;BME280;10573;50.936;6.978;2023-02-10T03:17:38;103255.16;;;5.15;66.33
20825;BME280;10573;50.936;6.978;2023-02-10T03:20:04;103254.06;;;5.20;65.92
20825;BME280;10573;50.936;6.978;2023-02-10T03:22:29;103255.03;;;5.18;66.02
20825;BME280;10573;50.936;6.978;2023-02-10T03:24:55;103257.09;;;5.10;65.71
20825;BME280;10573;50.936;6.978;2023-02-10T03:27:20;103257.69;;;5.19;65.58
20825;BME280;10573;50.936;6.978;2023-02-10T03:29:45;103268.78;;;5.10;66.56
20825;BME280;10573;50.936;6.978;2023-02-10T03:32:13;103265.25;;;5.08;66.27
20825;BME280;10573;50.936;6.978;2023-02-10T03:34:39;103263.53;;;5.06;66.76
20825;BME280;10573;50.936;6.978;2023-02-10T03:37:04;103268.28;;;4.97;66.85
20825;BME280;10573;50.936;6.978;2023-02-10T03:39:30;103266.06;;;5.12;66.56
20825;BME280;10573;50.936;6.978;2023-02-10T03:41:55;103263.06;;;4.91;66.28
20825;BME280;10573;50.936;6.978;2023-02-10T03:44:21;103268.09;;;5.03;66.85
20825;BME280;10573;50.936;6.978;2023-02-10T03:46:46;103264.28;;;4.81;66.68
20825;BME280;10573;50.936;6.978;2023-02-10T03:49:11;103261.75;;;5.04;66.12
20825;BME280;10573;50.936;6.978;2023-02-10T03:51:37;103247.50;;;4.99;66.55
20825;BME280;10573;50.936;6.978;2023-02-10T03:54:03;103244.03;;;4.96;66.46
20825;BME280;10573;50.936;6.978;2023-02-10T03:56:28;103237.94;;;4.89;66.39
20825;BME280;10573;50.936;6.978;2023-02-10T03:58:53;103233.19;;;4.67;67.13
20825;BME280;10573;50.936;6.978;2023-02-10T04:01:19;103229.81;;;4.89;66.40
20825;BME280;10573;50.936;6.978;2023-02-10T04:03:45;103218.00;;;4.93;66.46
20825;BME280;10573;50.936;6.978;2023-02-10T04:06:11;103226.22;;;4.88;66.45
20825;BME280;10573;50.936;6.978;2023-02-10T04:08:37;103215.91;;;4.73;66.60
20825;BME280;10573;50.936;6.978;2023-02-10T04:11:03;103203.47;;;4.67;66.41
20825;BME280;10573;50.936;6.978;2023-02-10T04:13:29;103205.75;;;4.51;67.51
20825;BME280;10573;50.936;6.978;2023-02-10T04:16:11;103213.38;;;4.35;67.90
20825;BME280;10573;50.936;6.978;2023-02-10T04:18:37;103213.19;;;4.42;67.36
20825;BME280;10573;50.936;6.978;2023-02-10T04:21:05;103225.72;;;4.44;67.84
20825;BME280;10573;50.936;6.978;2023-02-10T04:23:31;103235.03;;;4.32;67.72
20825;BME280;10573;50.936;6.978;2023-02-10T04:25:58;103234.31;;;4.27;68.50
20825;BME280;10573;50.936;6.978;2023-02-10T04:28:24;103228.25;;;4.17;68.79
20825;BME280;10573;50.936;6.978;2023-02-10T04:30:54;103236.16;;;4.25;68.27
20825;BME280;10573;50.936;6.978;2023-02-10T04:33:21;103237.81;;;3.98;68.93
20825;BME280;10573;50.936;6.978;2023-02-10T04:35:51;103242.47;;;3.91;69.44
20825;BME280;10573;50.936;6.978;2023-02-10T04:38:17;103245.69;;;4.06;68.87
20825;BME280;10573;50.936;6.978;2023-02-10T04:40:42;103254.63;;;4.08;69.19
20825;BME280;10573;50.936;6.978;2023-02-10T04:43:08;103256.50;;;4.06;68.80
20825;BME280;10573;50.936;6.978;2023-02-10T04:45:34;103250.91;;;4.12;68.96
20825;BME280;10573;50.936;6.978;2023-02-10T04:47:59;103253.22;;;3.93;69.44
20825;BME280;10573;50.936;6.978;2023-02-10T04:50:25;103256.84;;;3.92;69.50
20825;BME280;10573;50.936;6.978;2023-02-10T04:52:50;103253.81;;;4.04;69.46
20825;BME280;10573;50.936;6.978;2023-02-10T04:55:16;103266.66;;;3.94;69.55
20825;BME280;10573;50.936;6.978;2023-02-10T04:57:41;103261.94;;;4.02;69.21
20825;BME280;10573;50.936;6.978;2023-02-10T05:00:07;103268.97;;;4.10;69.58
20825;BME280;10573;50.936;6.978;2023-02-10T05:02:33;103267.75;;;3.87;69.47
20825;BME280;10573;50.936;6.978;2023-02-10T05:04:58;103266.59;;;3.96;69.38
20825;BME280;10573;50.936;6.978;2023-02-10T05:07:23;103270.81;;;4.08;69.57
20825;BME280;10573;50.936;6.978;2023-02-10T05:09:49;103270.94;;;4.03;69.28
20825;BME280;10573;50.936;6.978;2023-02-10T05:12:14;103267.34;;;4.02;69.31
20825;BME280;10573;50.936;6.978;2023-02-10T05:14:40;103273.47;;;4.09;69.20
20825;BME280;10573;50.936;6.978;2023-02-10T05:17:05;103265.81;;;3.92;69.77
20825;BME280;10573;50.936;6.978;2023-02-10T05:19:31;103271.38;;;3.86;69.49
20825;BME280;10573;50.936;6.978;2023-02-10T05:21:57;103263.03;;;3.95;69.22
20825;BME280;10573;50.936;6.978;2023-02-10T05:24:22;103264.28;;;3.82;69.92
20825;BME280;10573;50.936;6.978;2023-02-10T05:26:48;103261.31;;;3.93;69.74
20825;BME280;10573;50.936;6.978;2023-02-10T05:29:13;103269.75;;;3.79;69.96
20825;BME280;10573;50.936;6.978;2023-02-10T05:31:39;103271.59;;;3.77;70.30
20825;BME280;10573;50.936;6.978;2023-02-10T05:34:04;103268.13;;;3.72;70.45
20825;BME280;10573;50.936;6.978;2023-02-10T05:36:29;103277.75;;;3.82;69.95
20825;BME280;10573;50.936;6.978;2023-02-10T05:38:55;103281.28;;;3.84;69.52
20825;BME280;10573;50.936;6.978;2023-02-10T05:41:39;103281.91;;;3.59;70.16
20825;BME280;10573;50.936;6.978;2023-02-10T05:44:04;103285.94;;;3.79;69.78
20825;BME280;10573;50.936;6.978;2023-02-10T05:46:30;103283.56;;;3.65;70.10
20825;BME280;10573;50.936;6.978;2023-02-10T05:48:55;103281.56;;;3.73;70.20
20825;BME280;10573;50.936;6.978;2023-02-10T05:51:20;103283.22;;;3.43;70.71
20825;BME280;10573;50.936;6.978;2023-02-10T05:53:47;103281.13;;;3.54;70.41
20825;BME280;10573;50.936;6.978;2023-02-10T05:56:12;103290.34;;;3.44;70.58
20825;BME280;10573;50.936;6.978;2023-02-10T05:58:38;103291.25;;;3.44;70.64
20825;BME280;10573;50.936;6.978;2023-02-10T06:01:07;103292.78;;;3.56;70.38
20825;BME280;10573;50.936;6.978;2023-02-10T06:03:33;103294.00;;;3.43;70.39
20825;BME280;10573;50.936;6.978;2023-02-10T06:05:58;103283.50;;;3.30;70.95
20825;BME280;10573;50.936;6.978;2023-02-10T06:08:24;103290.59;;;3.34;70.71
20825;BME280;10573;50.936;6.978;2023-02-10T06:10:49;103288.63;;;3.41;70.77
20825;BME280;10573;50.936;6.978;2023-02-10T06:13:15;103284.22;;;3.39;70.77
20825;BME280;10573;50.936;6.978;2023-02-10T06:15:40;103287.63;;;3.45;70.85
20825;BME280;10573;50.936;6.978;2023-02-10T06:18:05;103283.22;;;3.43;70.78
20825;BME280;10573;50.936;6.978;2023-02-10T06:20:31;103281.78;;;3.26;70.93
20825;BME280;10573;50.936;6.978;2023-02-10T06:22:56;103279.97;;;3.27;71.17
20825;BME280;10573;50.936;6.978;2023-02-10T06:25:22;103287.31;;;3.20;70.78
20825;BME280;10573;50.936;6.978;2023-02-10T06:27:47;103297.09;;;3.24;71.27
20825;BME280;10573;50.936;6.978;2023-02-10T06:30:12;103302.53;;;3.23;71.41
20825;BME280;10573;50.936;6.978;2023-02-10T06:32:38;103312.66;;;3.10;71.70
20825;BME280;10573;50.936;6.978;2023-02-10T06:35:04;103308.38;;;3.01;71.67
20825;BME280;10573;50.936;6.978;2023-02-10T06:37:29;103309.38;;;2.95;71.73
20825;BME280;10573;50.936;6.978;2023-02-10T06:39:55;103312.88;;;3.00;71.95
20825;BME280;10573;50.936;6.978;2023-02-10T06:42:21;103316.28;;;3.10;71.50
20825;BME280;10573;50.936;6.978;2023-02-10T06:44:46;103317.03;;;3.17;71.36
20825;BME280;10573;50.936;6.978;2023-02-10T06:47:11;103315.66;;;2.96;71.70
20825;BME280;10573;50.936;6.978;2023-02-10T06:49:37;103325.16;;;3.14;71.63
20825;BME280;10573;50.936;6.978;2023-02-10T06:52:03;103325.97;;;3.17;71.46
20825;BME280;10573;50.936;6.978;2023-02-10T06:54:28;103322.09;;;3.31;71.14
20825;BME280;10573;50.936;6.978;2023-02-10T06:56:54;103335.44;;;3.35;70.63
20825;BME280;10573;50.936;6.978;2023-02-10T06:59:20;103335.97;;;3.12;71.07
20825;BME280;10573;50.936;6.978;2023-02-10T07:01:46;103345.00;;;3.10;71.54
20825;BME280;10573;50.936;6.978;2023-02-10T07:04:11;103343.03;;;3.18;71.38
20825;BME280;10573;50.936;6.978;2023-02-10T07:06:37;103345.41;;;3.33;71.12
20825;BME280;10573;50.936;6.978;2023-02-10T07:09:03;103354.75;;;3.15;71.13
20825;BME280;10573;50.936;6.978;2023-02-10T07:11:30;103348.16;;;3.30;71.10
20825;BME280;10573;50.936;6.978;2023-02-10T07:13:56;103355.56;;;3.19;70.91
20825;BME280;10573;50.936;6.978;2023-02-10T07:16:21;103362.06;;;3.51;71.41
20825;BME280;10573;50.936;6.978;2023-02-10T07:18:46;103363.03;;;3.48;71.64
20825;BME280;10573;50.936;6.978;2023-02-10T07:21:12;103357.97;;;3.74;70.50
20825;BME280;10573;50.936;6.978;2023-02-10T07:23:37;103360.75;;;3.69;69.58
20825;BME280;10573;50.936;6.978;2023-02-10T07:26:04;103360.16;;;3.56;69.76
20825;BME280;10573;50.936;6.978;2023-02-10T07:28:30;103371.34;;;3.38;69.96
20825;BME280;10573;50.936;6.978;2023-02-10T07:30:55;103371.72;;;3.61;69.47
20825;BME280;10573;50.936;6.978;2023-02-10T07:33:21;103366.78;;;3.40;70.19
20825;BME280;10573;50.936;6.978;2023-02-10T07:35:46;103363.34;;;3.74;69.08
20825;BME280;10573;50.936;6.978;2023-02-10T07:38:12;103354.34;;;3.75;68.80
20825;BME280;10573;50.936;6.978;2023-02-10T07:40:37;103363.56;;;3.64;68.84
20825;BME280;10573;50.936;6.978;2023-02-10T07:43:03;103352.59;;;3.31;70.02
20825;BME280;10573;50.936;6.978;2023-02-10T07:45:28;103358.09;;;3.67;69.35
20825;BME280;10573;50.936;6.978;2023-02-10T07:47:57;103356.47;;;3.60;69.70
20825;BME280;10573;50.936;6.978;2023-02-10T07:50:23;103357.25;;;3.64;69.58
20825;BME280;10573;50.936;6.978;2023-02-10T07:52:48;103346.44;;;3.67;69.57
20825;BME280;10573;50.936;6.978;2023-02-10T07:55:14;103356.31;;;3.68;69.44
20825;BME280;10573;50.936;6.978;2023-02-10T07:57:39;103341.88;;;3.69;69.44
20825;BME280;10573;50.936;6.978;2023-02-10T08:00:06;103350.78;;;3.73;69.34
20825;BME280;10573;50.936;6.978;2023-02-10T08:02:32;103347.31;;;3.67;69.44
20825;BME280;10573;50.936;6.978;2023-02-10T08:04:57;103361.94;;;3.95;69.38
20825;BME280;10573;50.936;6.978;2023-02-10T08:07:24;103351.16;;;3.95;68.70
20825;BME280;10573;50.936;6.978;2023-02-10T08:09:49;103353.88;;;3.93;68.16
20825;BME280;10573;50.936;6.978;2023-02-10T08:12:15;103354.53;;;4.05;68.16
20825;BME280;10573;50.936;6.978;2023-02-10T08:14:40;103359.13;;;3.99;68.24
20825;BME280;10573;50.936;6.978;2023-02-10T08:17:06;103357.28;;;4.01;67.58
20825;BME280;10573;50.936;6.978;2023-02-10T08:19:31;103352.91;;;3.96;68.15
20825;BME280;10573;50.936;6.978;2023-02-10T08:21:57;103364.75;;;3.90;67.69
20825;BME280;10573;50.936;6.978;2023-02-10T08:24:22;103365.78;;;4.22;67.34
20825;BME280;10573;50.936;6.978;2023-02-10T08:26:48;103369.09;;;4.32;67.23
20825;BME280;10573;50.936;6.978;2023-02-10T08:29:13;103365.88;;;4.19;67.82
20825;BME280;10573;50.936;6.978;2023-02-10T08:31:39;103363.75;;;4.30;67.27
20825;BME280;10573;50.936;6.978;2023-02-10T08:34:05;103357.34;;;4.34;67.10
20825;BME280;10573;50.936;6.978;2023-02-10T08:36:30;103360.91;;;4.36;66.82
20825;BME280;10573;50.936;6.978;2023-02-10T08:38:56;103353.84;;;4.31;67.13
20825;BME280;10573;50.936;6.978;2023-02-10T08:41:22;103355.34;;;4.43;66.83
20825;BME280;10573;50.936;6.978;2023-02-10T08:43:47;103363.34;;;4.46;66.96
20825;BME280;10573;50.936;6.978;2023-02-10T08:46:13;103370.22;;;4.58;67.27
20825;BME280;10573;50.936;6.978;2023-02-10T08:48:39;103371.53;;;4.43;67.39
20825;BME280;10573;50.936;6.978;2023-02-10T08:51:07;103375.59;;;4.59;67.10
20825;BME280;10573;50.936;6.978;2023-02-10T08:53:33;103384.06;;;4.80;65.89
20825;BME280;10573;50.936;6.978;2023-02-10T08:56:02;103385.97;;;4.75;66.53
20825;BME280;10573;50.936;6.978;2023-02-10T08:58:28;103380.25;;;4.87;66.88
20825;BME280;10573;50.936;6.978;2023-02-10T09:00:53;103377.41;;;4.92;66.32
20825;BME280;10573;50.936;6.978;2023-02-10T09:03:19;103375.84;;;4.83;66.08
20825;BME280;10573;50.936;6.978;2023-02-10T09:05:45;103380.44;;;5.12;65.45
20825;BME280;10573;50.936;6.978;2023-02-10T09:08:12;103380.75;;;5.01;65.58
20825;BME280;10573;50.936;6.978;2023-02-10T09:10:39;103378.66;;;5.11;65.27
20825;BME280;10573;50.936;6.978;2023-02-10T09:13:05;103381.94;;;5.23;64.90
20825;BME280;10573;50.936;6.978;2023-02-10T09:15:36;103378.75;;;5.38;64.38
20825;BME280;10573;50.936;6.978;2023-02-10T09:18:01;103384.75;;;5.18;65.83
20825;BME280;10573;50.936;6.978;2023-02-10T09:20:27;103391.13;;;5.15;66.13
20825;BME280;10573;50.936;6.978;2023-02-10T09:22:52;103377.28;;;5.58;64.95
20825;BME280;10573;50.936;6.978;2023-02-10T09:25:18;103382.81;;;5.23;65.73
20825;BME280;10573;50.936;6.978;2023-02-10T09:27:43;103377.34;;;5.54;64.75
20825;BME280;10573;50.936;6.978;2023-02-10T09:30:09;103384.06;;;5.43;65.32
20825;BME280;10573;50.936;6.978;2023-02-10T09:32:34;103384.47;;;5.59;65.09
20825;BME280;10573;50.936;6.978;2023-02-10T09:35:00;103380.13;;;5.53;65.50
20825;BME280;10573;50.936;6.978;2023-02-10T09:37:25;103390.88;;;5.84;64.72
20825;BME280;10573;50.936;6.978;2023-02-10T09:39:51;103390.53;;;5.95;64.15
20825;BME280;10573;50.936;6.978;2023-02-10T09:42:26;103397.41;;;6.07;63.52
20825;BME280;10573;50.936;6.978;2023-02-10T09:45:03;103394.09;;;6.24;62.32
20825;BME280;10573;50.936;6.978;2023-02-10T09:47:34;103391.34;;;6.26;63.16
20825;BME280;10573;50.936;6.978;2023-02-10T09:55:36;103382.84;;;6.36;62.13
20825;BME280;10573;50.936;6.978;2023-02-10T10:01:32;103390.81;;;6.68;62.25
20825;BME280;10573;50.936;6.978;2023-02-10T10:03:58;103399.19;;;6.60;62.73
20825;BME280;10573;50.936;6.978;2023-02-10T10:06:32;103395.75;;;6.55;62.64
20825;BME280;10573;50.936;6.978;2023-02-10T10:11:49;103403.03;;;6.80;62.20
20825;BME280;10573;50.936;6.978;2023-02-10T10:14:37;103407.41;;;6.84;61.43
20825;BME280;10573;50.936;6.978;2023-02-10T10:22:35;103405.34;;;7.16;60.60
20825;BME280;10573;50.936;6.978;2023-02-10T10:28:02;103407.97;;;7.43;60.44
20825;BME280;10573;50.936;6.978;2023-02-10T10:30:47;103405.56;;;7.57;59.96
20825;BME280;10573;50.936;6.978;2023-02-10T10:33:28;103414.25;;;7.67;59.63
20825;BME280;10573;50.936;6.978;2023-02-10T10:35:55;103420.56;;;7.89;59.12
20825;BME280;10573;50.936;6.978;2023-02-10T10:38:30;103415.06;;;7.93;59.33
20825;BME280;10573;50.936;6.978;2023-02-10T10:40:59;103421.16;;;7.76;60.17
20825;BME280;10573;50.936;6.978;2023-02-10T10:43:30;103420.06;;;7.80;60.50
20825;BME280;10573;50.936;6.978;2023-02-10T10:46:05;103411.06;;;7.79;59.92
20825;BME280;10573;50.936;6.978;2023-02-10T10:48:31;103404.75;;;8.01;60.17
20825;BME280;10573;50.936;6.978;2023-02-10T10:51:02;103410.97;;;8.04;59.35
20825;BME280;10573;50.936;6.978;2023-02-10T10:53:47;103405.81;;;8.19;58.97
20825;BME280;10573;50.936;6.978;2023-02-10T10:56:43;103411.69;;;8.30;58.26
20825;BME280;10573;50.936;6.978;2023-02-10T10:59:16;103394.50;;;8.52;57.90
20825;BME280;10573;50.936;6.978;2023-02-10T11:01:45;103394.31;;;8.34;57.68
20825;BME280;10573;50.936;6.978;2023-02-10T11:04:14;103396.03;;;8.15;58.82
20825;BME280;10573;50.936;6.978;2023-02-10T11:06:42;103393.00;;;8.22;58.95
20825;BME280;10573;50.936;6.978;2023-02-10T11:09:51;103384.59;;;8.51;58.30
20825;BME280;10573;50.936;6.978;2023-02-10T11:12:23;103383.91;;;8.87;57.29
20825;BME280;10573;50.936;6.978;2023-02-10T11:14:51;103381.13;;;8.88;57.31
20825;BME280;10573;50.936;6.978;2023-02-10T11:20:03;103371.91;;;9.12;56.40
20825;BME280;10573;50.936;6.978;2023-02-10T11:22:29;103381.94;;;9.30;56.17
20825;BME280;10573;50.936;6.978;2023-02-10T11:24:57;103380.03;;;9.13;55.82
20825;BME280;10573;50.936;6.978;2023-02-10T11:27:23;103363.03;;;9.65;55.24
20825;BME280;10573;50.936;6.978;2023-02-10T11:29:54;103360.63;;;9.59;55.14
20825;BME280;10573;50.936;6.978;2023-02-10T11:32:22;103360.75;;;9.56;55.46
20825;BME280;10573;50.936;6.978;2023-02-10T11:34:51;103347.28;;;9.91;54.85
20825;BME280;10573;50.936;6.978;2023-02-10T11:37:31;103343.47;;;10.13;54.69
20825;BME280;10573;50.936;6.978;2023-02-10T11:39:59;103341.28;;;10.38;53.67
20825;BME280;10573;50.936;6.978;2023-02-10T11:42:34;103333.13;;;10.19;54.08
20825;BME280;10573;50.936;6.978;2023-02-10T11:48:17;103330.66;;;10.50;53.33
20825;BME280;10573;50.936;6.978;2023-02-10T11:50:43;103323.31;;;10.52;53.44
20825;BME280;10573;50.936;6.978;2023-02-10T11:53:30;103314.31;;;11.01;52.93
20825;BME280;10573;50.936;6.978;2023-02-10T11:56:07;103310.78;;;10.65;52.80
20825;BME280;10573;50.936;6.978;2023-02-10T12:06:53;103301.88;;;12.37;47.92
20825;BME280;10573;50.936;6.978;2023-02-10T12:09:37;103302.94;;;12.04;48.06
20825;BME280;10573;50.936;6.978;2023-02-10T12:29:02;103283.50;;;13.55;44.60
20825;BME280;10573;50.936;6.978;2023-02-10T12:31:43;103277.69;;;13.74;43.17
20825;BME280;10573;50.936;6.978;2023-02-10T12:34:22;103286.19;;;13.27;43.68
20825;BME280;10573;50.936;6.978;2023-02-10T12:39:41;103265.94;;;14.12;41.51
20825;BME280;10573;50.936;6.978;2023-02-10T12:42:26;103278.47;;;13.20;43.16
20825;BME280;10573;50.936;6.978;2023-02-10T12:45:20;103280.75;;;12.99;43.51
20825;BME280;10573;50.936;6.978;2023-02-10T12:53:46;103252.91;;;13.75;41.13
20825;BME280;10573;50.936;6.978;2023-02-10T12:56:30;103239.22;;;14.41;38.30
20825;BME280;10573;50.936;6.978;2023-02-10T12:59:06;103229.88;;;14.44;37.47
20825;BME280;10573;50.936;6.978;2023-02-10T13:01:35;103232.56;;;13.52;38.78
20825;BME280;10573;50.936;6.978;2023-02-10T13:04:36;103236.47;;;13.75;38.61
20825;BME280;10573;50.936;6.978;2023-02-10T13:07:16;103235.22;;;13.94;37.89
20825;BME280;10573;50.936;6.978;2023-02-10T13:09:47;103232.59;;;13.65;37.51
20825;BME280;10573;50.936;6.978;2023-02-10T13:12:22;103229.16;;;13.34;38.25
20825;BME280;10573;50.936;6.978;2023-02-10T13:14:58;103228.91;;;13.39;38.42
20825;BME280;10573;50.936;6.978;2023-02-10T13:17:28;103238.84;;;12.84;40.32
20825;BME280;10573;50.936;6.978;2023-02-10T13:23:11;103219.59;;;13.82;39.15
20825;BME280;10573;50.936;6.978;2023-02-10T13:25:54;103214.22;;;14.72;37.89
20825;BME280;10573;50.936;6.978;2023-02-10T13:36:18;103210.22;;;14.89;38.12
20825;BME280;10573;50.936;6.978;2023-02-10T13:38:58;103205.13;;;15.57;36.85
20825;BME280;10573;50.936;6.978;2023-02-10T13:41:30;103199.28;;;15.37;37.35
20825;BME280;10573;50.936;6.978;2023-02-10T13:44:23;103206.06;;;14.83;38.06
20825;BME280;10573;50.936;6.978;2023-02-10T13:47:14;103204.50;;;14.02;38.49
20825;BME280;10573;50.936;6.978;2023-02-10T13:49:57;103214.22;;;13.25;40.18
20825;BME280;10573;50.936;6.978;2023-02-10T13:52:27;103205.13;;;13.25;40.90
20825;BME280;10573;50.936;6.978;2023-02-10T13:57:37;103204.31;;;14.18;39.34
20825;BME280;10573;50.936;6.978;2023-02-10T14:02:35;103209.47;;;13.69;40.87
20825;BME280;10573;50.936;6.978;2023-02-10T14:05:00;103211.75;;;13.35;41.11
20825;BME280;10573;50.936;6.978;2023-02-10T14:12:58;103195.22;;;15.19;37.11
20825;BME280;10573;50.936;6.978;2023-02-10T14:15:38;103188.28;;;15.61;36.12
20825;BME280;10573;50.936;6.978;2023-02-10T14:18:26;103182.69;;;15.63;36.56
20825;BME280;10573;50.936;6.978;2023-02-10T14:21:06;103183.91;;;16.64;34.61
20825;BME280;10573;50.936;6.978;2023-02-10T14:23:35;103176.56;;;15.95;35.61
20825;BME280;10573;50.936;6.978;2023-02-10T14:26:12;103177.47;;;15.96;35.16
20825;BME280;10573;50.936;6.978;2023-02-10T14:28:40;103180.09;;;15.97;34.84
20825;BME280;10573;50.936;6.978;2023-02-10T14:31:13;103175.34;;;15.39;35.57
20825;BME280;10573;50.936;6.978;2023-02-10T14:33:41;103180.94;;;15.62;35.16
20825;BME280;10573;50.936;6.978;2023-02-10T14:36:16;103183.56;;;15.88;34.75
20825;BME280;10573;50.936;6.978;2023-02-10T14:38:43;103175.09;;;16.14;34.80
20825;BME280;10573;50.936;6.978;2023-02-10T14:41:12;103173.63;;;16.32;34.62
20825;BME280;10573;50.936;6.978;2023-02-10T14:43:38;103173.69;;;15.13;35.73
20825;BME280;10573;50.936;6.978;2023-02-10T14:46:04;103172.47;;;15.17;36.02
20825;BME280;10573;50.936;6.978;2023-02-10T14:48:30;103175.25;;;15.28;36.55